Buchanan Dam, Texas
Current Conditions -  °F | °C
As of 9:53 AM on Friday 24 Oct 2014 (Local Time) from KBMQ Reporting Station
Clear Clear  
Wind Chill: 68°   Ceiling: Unl
Heat Index: 68°   Visibility: 10mi
Dew Point: 57°   Wind: 0mph
Humidity: 68%   Direction: NA
Pressure: 30.21"   Gusts: NA
Location:  30.75°N, 98.42°W
Report Text: KBMQ 241453Z AUTO 00000KT 10SM CLR 20/14 A3021 RMK AO2 SLP218 T02000139 53016 $
Loading
Personal Weather Stations






























Interactive Weather Map
Tropical Storm Tracking
New forecast layout! Learn more

10-Day Weather Forecast

Advertisements
Track Severe Weather on mobile